sensor_id;sensor_type;location;lat;lon;timestamp;P1;durP1;ratioP1;P2;durP2;ratioP2
9140;SDS011;46330;50.822;7.126;2023-10-19T00:00:32;8.63;;;6.00;;
9140;SDS011;46330;50.822;7.126;2023-10-19T00:03:02;9.45;;;6.50;;
9140;SDS011;46330;50.822;7.126;2023-10-19T00:05:30;9.00;;;5.72;;
9140;SDS011;46330;50.822;7.126;2023-10-19T00:07:58;9.32;;;6.05;;
9140;SDS011;46330;50.822;7.126;2023-10-19T00:10:32;8.57;;;5.50;;
9140;SDS011;46330;50.822;7.126;2023-10-19T00:13:02;7.00;;;4.65;;
9140;SDS011;46330;50.822;7.126;2023-10-19T00:15:32;10.20;;;6.05;;
9140;SDS011;46330;50.822;7.126;2023-10-19T00:18:02;8.75;;;6.50;;
9140;SDS011;46330;50.822;7.126;2023-10-19T00:23:19;9.45;;;5.88;;
9140;SDS011;46330;50.822;7.126;2023-10-19T00:25:55;10.55;;;6.15;;
9140;SDS011;46330;50.822;7.126;2023-10-19T00:28:23;10.68;;;6.80;;
9140;SDS011;46330;50.822;7.126;2023-10-19T00:30:53;11.68;;;6.68;;
9140;SDS011;46330;50.822;7.126;2023-10-19T00:33:28;11.77;;;6.75;;
9140;SDS011;46330;50.822;7.126;2023-10-19T00:35:59;11.75;;;6.95;;
9140;SDS011;46330;50.822;7.126;2023-10-19T00:38:35;10.93;;;7.28;;
9140;SDS011;46330;50.822;7.126;2023-10-19T00:41:08;10.30;;;6.60;;
9140;SDS011;46330;50.822;7.126;2023-10-19T00:43:41;10.10;;;6.78;;
9140;SDS011;46330;50.822;7.126;2023-10-19T00:46:12;10.15;;;6.68;;
9140;SDS011;46330;50.822;7.126;2023-10-19T00:48:55;10.13;;;7.13;;
9140;SDS011;46330;50.822;7.126;2023-10-19T00:51:26;10.90;;;7.25;;
9140;SDS011;46330;50.822;7.126;2023-10-19T00:54:08;12.18;;;7.65;;
9140;SDS011;46330;50.822;7.126;2023-10-19T00:56:42;11.57;;;6.82;;
9140;SDS011;46330;50.822;7.126;2023-10-19T00:59:15;9.65;;;6.88;;
9140;SDS011;46330;50.822;7.126;2023-10-19T01:01:49;11.93;;;7.03;;
9140;SDS011;46330;50.822;7.126;2023-10-19T01:04:22;11.98;;;7.25;;
9140;SDS011;46330;50.822;7.126;2023-10-19T01:06:51;11.25;;;7.60;;
9140;SDS011;46330;50.822;7.126;2023-10-19T01:09:32;11.07;;;7.18;;
9140;SDS011;46330;50.822;7.126;2023-10-19T01:12:03;9.57;;;6.90;;
9140;SDS011;46330;50.822;7.126;2023-10-19T01:15:04;10.23;;;6.85;;
9140;SDS011;46330;50.822;7.126;2023-10-19T01:17:40;10.00;;;6.97;;
9140;SDS011;46330;50.822;7.126;2023-10-19T01:20:13;10.77;;;6.95;;
9140;SDS011;46330;50.822;7.126;2023-10-19T01:22:55;13.77;;;8.10;;
9140;SDS011;46330;50.822;7.126;2023-10-19T01:25:44;11.15;;;7.05;;
9140;SDS011;46330;50.822;7.126;2023-10-19T01:28:16;13.85;;;7.15;;
9140;SDS011;46330;50.822;7.126;2023-10-19T01:30:45;11.70;;;6.63;;
9140;SDS011;46330;50.822;7.126;2023-10-19T01:33:18;10.68;;;7.35;;
9140;SDS011;46330;50.822;7.126;2023-10-19T01:35:47;12.65;;;7.68;;
9140;SDS011;46330;50.822;7.126;2023-10-19T01:38:34;9.43;;;6.80;;
9140;SDS011;46330;50.822;7.126;2023-10-19T01:41:02;9.27;;;6.72;;
9140;SDS011;46330;50.822;7.126;2023-10-19T01:43:40;10.90;;;6.20;;
9140;SDS011;46330;50.822;7.126;2023-10-19T01:46:10;14.18;;;7.43;;
9140;SDS011;46330;50.822;7.126;2023-10-19T01:48:49;9.70;;;6.72;;
9140;SDS011;46330;50.822;7.126;2023-10-19T01:51:21;11.07;;;7.63;;
9140;SDS011;46330;50.822;7.126;2023-10-19T01:53:51;12.85;;;7.30;;
9140;SDS011;46330;50.822;7.126;2023-10-19T01:56:19;11.80;;;7.32;;
9140;SDS011;46330;50.822;7.126;2023-10-19T01:58:48;10.00;;;7.30;;
9140;SDS011;46330;50.822;7.126;2023-10-19T02:01:18;10.70;;;7.47;;
9140;SDS011;46330;50.822;7.126;2023-10-19T02:03:47;11.40;;;7.78;;
9140;SDS011;46330;50.822;7.126;2023-10-19T02:06:22;11.95;;;6.97;;
9140;SDS011;46330;50.822;7.126;2023-10-19T02:08:54;13.75;;;7.32;;
9140;SDS011;46330;50.822;7.126;2023-10-19T02:11:27;10.82;;;6.85;;
9140;SDS011;46330;50.822;7.126;2023-10-19T02:13:56;10.68;;;6.95;;
9140;SDS011;46330;50.822;7.126;2023-10-19T02:16:26;11.95;;;7.55;;
9140;SDS011;46330;50.822;7.126;2023-10-19T02:18:56;12.35;;;7.25;;
9140;SDS011;46330;50.822;7.126;2023-10-19T02:21:24;12.07;;;7.30;;
9140;SDS011;46330;50.822;7.126;2023-10-19T02:23:57;9.48;;;6.88;;
9140;SDS011;46330;50.822;7.126;2023-10-19T02:26:25;12.52;;;7.30;;
9140;SDS011;46330;50.822;7.126;2023-10-19T02:28:53;11.93;;;7.47;;
9140;SDS011;46330;50.822;7.126;2023-10-19T02:31:24;11.30;;;7.55;;
9140;SDS011;46330;50.822;7.126;2023-10-19T02:33:53;9.07;;;6.30;;
9140;SDS011;46330;50.822;7.126;2023-10-19T02:36:26;9.38;;;6.28;;
9140;SDS011;46330;50.822;7.126;2023-10-19T02:38:56;8.65;;;6.50;;
9140;SDS011;46330;50.822;7.126;2023-10-19T02:41:26;9.30;;;6.57;;
9140;SDS011;46330;50.822;7.126;2023-10-19T02:43:53;10.57;;;6.75;;
9140;SDS011;46330;50.822;7.126;2023-10-19T02:46:32;9.52;;;6.50;;
9140;SDS011;46330;50.822;7.126;2023-10-19T02:49:00;10.52;;;6.50;;
9140;SDS011;46330;50.822;7.126;2023-10-19T02:51:29;10.82;;;7.28;;
9140;SDS011;46330;50.822;7.126;2023-10-19T02:53:57;12.23;;;7.07;;
9140;SDS011;46330;50.822;7.126;2023-10-19T02:56:28;10.65;;;7.35;;
9140;SDS011;46330;50.822;7.126;2023-10-19T02:58:57;10.75;;;7.53;;
9140;SDS011;46330;50.822;7.126;2023-10-19T03:01:30;12.27;;;6.88;;
9140;SDS011;46330;50.822;7.126;2023-10-19T03:04:00;11.95;;;6.63;;
9140;SDS011;46330;50.822;7.126;2023-10-19T03:06:28;11.55;;;7.43;;
9140;SDS011;46330;50.822;7.126;2023-10-19T03:09:04;11.27;;;6.88;;
9140;SDS011;46330;50.822;7.126;2023-10-19T03:11:39;11.02;;;7.05;;
9140;SDS011;46330;50.822;7.126;2023-10-19T03:14:08;10.73;;;7.20;;
9140;SDS011;46330;50.822;7.126;2023-10-19T03:16:35;14.13;;;7.30;;
9140;SDS011;46330;50.822;7.126;2023-10-19T03:19:04;11.85;;;7.20;;
9140;SDS011;46330;50.822;7.126;2023-10-19T03:21:31;10.05;;;7.10;;
9140;SDS011;46330;50.822;7.126;2023-10-19T03:24:10;12.57;;;7.22;;
9140;SDS011;46330;50.822;7.126;2023-10-19T03:26:40;10.00;;;6.20;;
9140;SDS011;46330;50.822;7.126;2023-10-19T03:29:15;10.68;;;6.95;;
9140;SDS011;46330;50.822;7.126;2023-10-19T03:31:44;11.25;;;6.63;;
9140;SDS011;46330;50.822;7.126;2023-10-19T03:34:15;9.82;;;6.90;;
9140;SDS011;46330;50.822;7.126;2023-10-19T03:36:44;9.80;;;6.60;;
9140;SDS011;46330;50.822;7.126;2023-10-19T03:39:13;10.60;;;6.78;;
9140;SDS011;46330;50.822;7.126;2023-10-19T03:41:44;10.07;;;6.72;;
9140;SDS011;46330;50.822;7.126;2023-10-19T03:44:12;10.02;;;6.90;;
9140;SDS011;46330;50.822;7.126;2023-10-19T03:46:45;10.10;;;6.85;;
9140;SDS011;46330;50.822;7.126;2023-10-19T03:49:30;13.18;;;7.47;;
9140;SDS011;46330;50.822;7.126;2023-10-19T03:52:03;13.27;;;7.75;;
9140;SDS011;46330;50.822;7.126;2023-10-19T03:54:49;11.00;;;7.35;;
9140;SDS011;46330;50.822;7.126;2023-10-19T03:57:17;11.38;;;7.65;;
9140;SDS011;46330;50.822;7.126;2023-10-19T03:59:49;13.38;;;7.90;;
9140;SDS011;46330;50.822;7.126;2023-10-19T04:02:20;10.27;;;7.07;;
9140;SDS011;46330;50.822;7.126;2023-10-19T04:04:49;11.43;;;7.20;;
9140;SDS011;46330;50.822;7.126;2023-10-19T04:07:19;12.68;;;7.00;;
9140;SDS011;46330;50.822;7.126;2023-10-19T04:09:50;10.82;;;7.35;;
9140;SDS011;46330;50.822;7.126;2023-10-19T04:12:30;12.30;;;7.57;;
9140;SDS011;46330;50.822;7.126;2023-10-19T04:14:59;10.52;;;7.35;;
9140;SDS011;46330;50.822;7.126;2023-10-19T04:17:36;11.45;;;7.55;;
9140;SDS011;46330;50.822;7.126;2023-10-19T04:20:05;11.63;;;7.40;;
9140;SDS011;46330;50.822;7.126;2023-10-19T04:22:47;11.02;;;7.80;;
9140;SDS011;46330;50.822;7.126;2023-10-19T04:25:19;11.18;;;7.75;;
9140;SDS011;46330;50.822;7.126;2023-10-19T04:27:47;12.05;;;7.65;;
9140;SDS011;46330;50.822;7.126;2023-10-19T04:30:16;11.68;;;7.43;;
9140;SDS011;46330;50.822;7.126;2023-10-19T04:32:49;12.32;;;7.13;;
9140;SDS011;46330;50.822;7.126;2023-10-19T04:35:18;12.35;;;7.45;;
9140;SDS011;46330;50.822;7.126;2023-10-19T04:37:49;13.73;;;7.38;;
9140;SDS011;46330;50.822;7.126;2023-10-19T04:40:20;12.93;;;7.90;;
9140;SDS011;46330;50.822;7.126;2023-10-19T04:42:49;15.48;;;7.60;;
9140;SDS011;46330;50.822;7.126;2023-10-19T04:45:19;10.88;;;7.20;;
9140;SDS011;46330;50.822;7.126;2023-10-19T04:47:49;13.88;;;7.65;;
9140;SDS011;46330;50.822;7.126;2023-10-19T04:50:19;10.00;;;7.60;;
9140;SDS011;46330;50.822;7.126;2023-10-19T04:52:47;11.82;;;7.80;;
9140;SDS011;46330;50.822;7.126;2023-10-19T04:55:15;12.40;;;7.88;;
9140;SDS011;46330;50.822;7.126;2023-10-19T04:57:44;13.13;;;7.63;;
9140;SDS011;46330;50.822;7.126;2023-10-19T05:00:13;12.73;;;7.57;;
9140;SDS011;46330;50.822;7.126;2023-10-19T05:02:42;12.30;;;7.78;;
9140;SDS011;46330;50.822;7.126;2023-10-19T05:05:10;13.10;;;8.57;;
9140;SDS011;46330;50.822;7.126;2023-10-19T05:07:40;14.35;;;7.85;;
9140;SDS011;46330;50.822;7.126;2023-10-19T05:10:09;12.93;;;8.05;;
9140;SDS011;46330;50.822;7.126;2023-10-19T05:12:37;15.63;;;8.32;;
9140;SDS011;46330;50.822;7.126;2023-10-19T05:15:07;12.45;;;8.32;;
9140;SDS011;46330;50.822;7.126;2023-10-19T05:17:35;12.65;;;7.70;;
9140;SDS011;46330;50.822;7.126;2023-10-19T05:20:05;11.23;;;7.75;;
9140;SDS011;46330;50.822;7.126;2023-10-19T05:22:34;12.82;;;7.72;;
9140;SDS011;46330;50.822;7.126;2023-10-19T05:25:05;13.38;;;8.00;;
9140;SDS011;46330;50.822;7.126;2023-10-19T05:27:34;12.23;;;7.85;;
9140;SDS011;46330;50.822;7.126;2023-10-19T05:30:02;12.93;;;7.63;;
9140;SDS011;46330;50.822;7.126;2023-10-19T05:32:32;12.38;;;7.25;;
9140;SDS011;46330;50.822;7.126;2023-10-19T05:35:00;11.68;;;6.80;;
9140;SDS011;46330;50.822;7.126;2023-10-19T05:37:31;11.70;;;7.63;;
9140;SDS011;46330;50.822;7.126;2023-10-19T05:40:00;14.45;;;8.45;;
9140;SDS011;46330;50.822;7.126;2023-10-19T05:42:31;15.70;;;8.52;;
9140;SDS011;46330;50.822;7.126;2023-10-19T05:45:01;15.65;;;8.23;;
9140;SDS011;46330;50.822;7.126;2023-10-19T05:47:29;11.95;;;7.82;;
9140;SDS011;46330;50.822;7.126;2023-10-19T05:49:59;13.63;;;7.47;;
9140;SDS011;46330;50.822;7.126;2023-10-19T05:52:26;14.43;;;8.57;;
9140;SDS011;46330;50.822;7.126;2023-10-19T05:54:55;19.00;;;8.30;;
9140;SDS011;46330;50.822;7.126;2023-10-19T05:57:24;15.73;;;8.43;;
9140;SDS011;46330;50.822;7.126;2023-10-19T05:59:51;15.10;;;9.20;;
9140;SDS011;46330;50.822;7.126;2023-10-19T06:02:19;14.13;;;8.07;;
9140;SDS011;46330;50.822;7.126;2023-10-19T06:04:59;14.90;;;8.13;;
9140;SDS011;46330;50.822;7.126;2023-10-19T06:07:28;14.43;;;8.10;;
9140;SDS011;46330;50.822;7.126;2023-10-19T06:09:55;18.50;;;9.70;;
9140;SDS011;46330;50.822;7.126;2023-10-19T06:12:24;16.92;;;8.95;;
9140;SDS011;46330;50.822;7.126;2023-10-19T06:14:52;15.48;;;8.63;;
9140;SDS011;46330;50.822;7.126;2023-10-19T06:17:19;14.40;;;8.55;;
9140;SDS011;46330;50.822;7.126;2023-10-19T06:19:48;14.40;;;8.90;;
9140;SDS011;46330;50.822;7.126;2023-10-19T06:22:17;14.43;;;8.93;;
9140;SDS011;46330;50.822;7.126;2023-10-19T06:24:45;16.08;;;9.10;;
9140;SDS011;46330;50.822;7.126;2023-10-19T06:27:13;18.33;;;9.35;;
9140;SDS011;46330;50.822;7.126;2023-10-19T06:29:41;14.95;;;9.48;;
9140;SDS011;46330;50.822;7.126;2023-10-19T06:32:10;14.73;;;9.50;;
9140;SDS011;46330;50.822;7.126;2023-10-19T06:34:40;16.83;;;9.50;;
9140;SDS011;46330;50.822;7.126;2023-10-19T06:37:08;20.20;;;8.43;;
9140;SDS011;46330;50.822;7.126;2023-10-19T06:39:38;14.02;;;8.85;;
9140;SDS011;46330;50.822;7.126;2023-10-19T06:42:08;15.98;;;8.85;;
9140;SDS011;46330;50.822;7.126;2023-10-19T06:44:40;15.43;;;9.23;;
9140;SDS011;46330;50.822;7.126;2023-10-19T06:47:09;16.30;;;8.60;;
9140;SDS011;46330;50.822;7.126;2023-10-19T06:49:39;14.85;;;8.23;;
9140;SDS011;46330;50.822;7.126;2023-10-19T06:52:07;15.38;;;9.05;;
9140;SDS011;46330;50.822;7.126;2023-10-19T06:54:39;18.80;;;9.43;;
9140;SDS011;46330;50.822;7.126;2023-10-19T06:57:07;15.77;;;9.98;;
9140;SDS011;46330;50.822;7.126;2023-10-19T06:59:35;16.73;;;9.05;;
9140;SDS011;46330;50.822;7.126;2023-10-19T07:02:03;13.88;;;8.38;;
9140;SDS011;46330;50.822;7.126;2023-10-19T07:04:34;14.85;;;8.77;;
9140;SDS011;46330;50.822;7.126;2023-10-19T07:07:03;21.33;;;10.98;;
9140;SDS011;46330;50.822;7.126;2023-10-19T07:09:31;18.30;;;10.73;;
9140;SDS011;46330;50.822;7.126;2023-10-19T07:12:02;16.13;;;9.88;;
9140;SDS011;46330;50.822;7.126;2023-10-19T07:14:32;18.88;;;10.90;;
9140;SDS011;46330;50.822;7.126;2023-10-19T07:17:00;25.90;;;13.65;;
9140;SDS011;46330;50.822;7.126;2023-10-19T07:19:29;16.52;;;9.98;;
9140;SDS011;46330;50.822;7.126;2023-10-19T07:21:57;16.23;;;9.30;;
9140;SDS011;46330;50.822;7.126;2023-10-19T07:24:28;16.73;;;9.48;;
9140;SDS011;46330;50.822;7.126;2023-10-19T07:26:56;16.73;;;9.43;;
9140;SDS011;46330;50.822;7.126;2023-10-19T07:29:32;11.88;;;8.07;;
9140;SDS011;46330;50.822;7.126;2023-10-19T07:32:02;16.92;;;9.00;;
9140;SDS011;46330;50.822;7.126;2023-10-19T07:34:31;12.90;;;8.50;;
9140;SDS011;46330;50.822;7.126;2023-10-19T07:37:00;13.98;;;8.23;;
9140;SDS011;46330;50.822;7.126;2023-10-19T07:39:28;13.85;;;8.00;;
9140;SDS011;46330;50.822;7.126;2023-10-19T07:41:56;13.43;;;7.78;;
9140;SDS011;46330;50.822;7.126;2023-10-19T07:44:24;16.65;;;7.93;;
9140;SDS011;46330;50.822;7.126;2023-10-19T07:46:56;16.88;;;8.13;;
9140;SDS011;46330;50.822;7.126;2023-10-19T07:49:24;15.18;;;7.50;;
9140;SDS011;46330;50.822;7.126;2023-10-19T07:51:52;12.07;;;7.32;;
9140;SDS011;46330;50.822;7.126;2023-10-19T07:54:23;14.88;;;7.45;;
9140;SDS011;46330;50.822;7.126;2023-10-19T07:56:51;9.38;;;6.60;;
9140;SDS011;46330;50.822;7.126;2023-10-19T07:59:19;13.27;;;6.53;;
9140;SDS011;46330;50.822;7.126;2023-10-19T08:01:48;11.80;;;7.03;;
9140;SDS011;46330;50.822;7.126;2023-10-19T08:04:17;12.00;;;6.80;;
9140;SDS011;46330;50.822;7.126;2023-10-19T08:06:45;13.38;;;6.00;;
9140;SDS011;46330;50.822;7.126;2023-10-19T08:09:13;10.50;;;5.70;;
9140;SDS011;46330;50.822;7.126;2023-10-19T08:11:49;8.18;;;5.82;;
9140;SDS011;46330;50.822;7.126;2023-10-19T08:14:21;11.32;;;5.90;;
9140;SDS011;46330;50.822;7.126;2023-10-19T08:16:51;10.73;;;5.93;;
9140;SDS011;46330;50.822;7.126;2023-10-19T08:19:20;10.65;;;5.80;;
9140;SDS011;46330;50.822;7.126;2023-10-19T08:21:49;9.20;;;5.65;;
9140;SDS011;46330;50.822;7.126;2023-10-19T08:24:17;9.82;;;5.38;;
9140;SDS011;46330;50.822;7.126;2023-10-19T08:26:46;9.38;;;6.00;;
9140;SDS011;46330;50.822;7.126;2023-10-19T08:29:14;10.23;;;5.35;;
9140;SDS011;46330;50.822;7.126;2023-10-19T08:31:43;10.95;;;5.70;;
9140;SDS011;46330;50.822;7.126;2023-10-19T08:34:12;10.45;;;5.40;;
9140;SDS011;46330;50.822;7.126;2023-10-19T08:36:42;10.63;;;4.72;;
9140;SDS011;46330;50.822;7.126;2023-10-19T08:39:10;8.27;;;4.68;;
9140;SDS011;46330;50.822;7.126;2023-10-19T08:41:39;6.53;;;4.10;;
9140;SDS011;46330;50.822;7.126;2023-10-19T08:44:07;9.43;;;4.25;;
9140;SDS011;46330;50.822;7.126;2023-10-19T08:46:38;7.35;;;3.90;;
9140;SDS011;46330;50.822;7.126;2023-10-19T08:49:10;7.78;;;3.78;;
9140;SDS011;46330;50.822;7.126;2023-10-19T08:51:39;8.20;;;3.78;;
9140;SDS011;46330;50.822;7.126;2023-10-19T08:54:12;9.27;;;4.22;;
9140;SDS011;46330;50.822;7.126;2023-10-19T08:56:41;6.10;;;3.70;;
9140;SDS011;46330;50.822;7.126;2023-10-19T08:59:11;7.05;;;3.72;;
9140;SDS011;46330;50.822;7.126;2023-10-19T09:01:38;7.43;;;4.05;;
9140;SDS011;46330;50.822;7.126;2023-10-19T09:04:07;6.05;;;3.30;;
9140;SDS011;46330;50.822;7.126;2023-10-19T09:06:37;7.28;;;3.20;;
9140;SDS011;46330;50.822;7.126;2023-10-19T09:09:09;6.30;;;2.92;;
9140;SDS011;46330;50.822;7.126;2023-10-19T09:11:44;6.97;;;3.10;;
9140;SDS011;46330;50.822;7.126;2023-10-19T09:14:12;6.50;;;2.60;;
9140;SDS011;46330;50.822;7.126;2023-10-19T09:16:53;4.63;;;2.40;;
9140;SDS011;46330;50.822;7.126;2023-10-19T09:19:35;7.25;;;2.72;;
9140;SDS011;46330;50.822;7.126;2023-10-19T09:22:04;6.82;;;2.70;;
9140;SDS011;46330;50.822;7.126;2023-10-19T09:24:34;8.48;;;2.67;;
9140;SDS011;46330;50.822;7.126;2023-10-19T09:27:04;7.18;;;2.10;;
9140;SDS011;46330;50.822;7.126;2023-10-19T09:29:32;6.95;;;2.20;;
9140;SDS011;46330;50.822;7.126;2023-10-19T09:32:01;9.48;;;2.35;;
9140;SDS011;46330;50.822;7.126;2023-10-19T09:34:31;5.60;;;2.00;;
9140;SDS011;46330;50.822;7.126;2023-10-19T09:37:00;4.45;;;2.10;;
9140;SDS011;46330;50.822;7.126;2023-10-19T09:39:30;9.60;;;2.10;;
9140;SDS011;46330;50.822;7.126;2023-10-19T09:42:05;5.90;;;2.10;;
9140;SDS011;46330;50.822;7.126;2023-10-19T09:44:39;6.50;;;1.90;;
9140;SDS011;46330;50.822;7.126;2023-10-19T09:47:10;11.13;;;2.53;;
9140;SDS011;46330;50.822;7.126;2023-10-19T09:49:40;5.72;;;2.03;;
9140;SDS011;46330;50.822;7.126;2023-10-19T09:52:09;5.30;;;2.17;;
9140;SDS011;46330;50.822;7.126;2023-10-19T09:54:50;4.15;;;1.60;;
9140;SDS011;46330;50.822;7.126;2023-10-19T09:57:28;6.93;;;2.13;;
9140;SDS011;46330;50.822;7.126;2023-10-19T10:00:03;6.03;;;1.52;;
9140;SDS011;46330;50.822;7.126;2023-10-19T10:02:38;3.85;;;1.50;;
9140;SDS011;46330;50.822;7.126;2023-10-19T10:08:29;6.32;;;1.60;;
9140;SDS011;46330;50.822;7.126;2023-10-19T10:10:58;6.30;;;2.15;;
9140;SDS011;46330;50.822;7.126;2023-10-19T10:16:13;4.63;;;1.30;;
9140;SDS011;46330;50.822;7.126;2023-10-19T10:18:42;6.18;;;1.40;;
9140;SDS011;46330;50.822;7.126;2023-10-19T10:21:12;5.78;;;1.50;;
9140;SDS011;46330;50.822;7.126;2023-10-19T10:23:43;2.92;;;1.17;;
9140;SDS011;46330;50.822;7.126;2023-10-19T10:26:14;7.85;;;1.80;;
9140;SDS011;46330;50.822;7.126;2023-10-19T10:28:47;5.03;;;1.58;;
9140;SDS011;46330;50.822;7.126;2023-10-19T10:31:20;3.85;;;1.20;;
9140;SDS011;46330;50.822;7.126;2023-10-19T10:33:49;7.07;;;2.08;;
9140;SDS011;46330;50.822;7.126;2023-10-19T10:36:21;6.45;;;1.42;;
9140;SDS011;46330;50.822;7.126;2023-10-19T10:38:49;7.70;;;1.75;;
9140;SDS011;46330;50.822;7.126;2023-10-19T10:41:21;5.50;;;1.60;;
9140;SDS011;46330;50.822;7.126;2023-10-19T10:43:54;6.07;;;1.63;;
9140;SDS011;46330;50.822;7.126;2023-10-19T10:46:24;9.52;;;2.13;;
9140;SDS011;46330;50.822;7.126;2023-10-19T10:48:53;8.13;;;1.95;;
9140;SDS011;46330;50.822;7.126;2023-10-19T10:51:22;7.15;;;1.88;;
9140;SDS011;46330;50.822;7.126;2023-10-19T10:53:51;4.70;;;1.60;;
9140;SDS011;46330;50.822;7.126;2023-10-19T10:56:20;4.30;;;1.77;;
9140;SDS011;46330;50.822;7.126;2023-10-19T10:58:49;5.03;;;2.03;;
9140;SDS011;46330;50.822;7.126;2023-10-19T11:01:29;8.25;;;2.17;;
9140;SDS011;46330;50.822;7.126;2023-10-19T11:04:06;4.85;;;1.92;;
9140;SDS011;46330;50.822;7.126;2023-10-19T11:09:13;7.45;;;1.80;;
9140;SDS011;46330;50.822;7.126;2023-10-19T11:11:45;9.02;;;2.10;;
9140;SDS011;46330;50.822;7.126;2023-10-19T11:14:13;5.15;;;1.77;;
9140;SDS011;46330;50.822;7.126;2023-10-19T11:16:42;8.52;;;1.92;;
9140;SDS011;46330;50.822;7.126;2023-10-19T11:19:10;4.93;;;1.70;;
9140;SDS011;46330;50.822;7.126;2023-10-19T11:21:38;5.45;;;1.60;;
9140;SDS011;46330;50.822;7.126;2023-10-19T11:24:25;5.75;;;1.52;;
9140;SDS011;46330;50.822;7.126;2023-10-19T11:26:55;5.93;;;1.60;;
9140;SDS011;46330;50.822;7.126;2023-10-19T11:29:22;5.22;;;1.63;;
9140;SDS011;46330;50.822;7.126;2023-10-19T11:31:59;6.45;;;1.70;;
9140;SDS011;46330;50.822;7.126;2023-10-19T11:34:29;9.00;;;1.90;;
9140;SDS011;46330;50.822;7.126;2023-10-19T11:37:02;6.00;;;1.80;;
9140;SDS011;46330;50.822;7.126;2023-10-19T11:39:31;5.53;;;1.70;;
9140;SDS011;46330;50.822;7.126;2023-10-19T11:41:59;4.60;;;1.50;;
9140;SDS011;46330;50.822;7.126;2023-10-19T11:44:27;7.15;;;1.58;;
9140;SDS011;46330;50.822;7.126;2023-10-19T11:46:56;7.57;;;1.60;;
9140;SDS011;46330;50.822;7.126;2023-10-19T11:49:25;9.23;;;1.70;;
9140;SDS011;46330;50.822;7.126;2023-10-19T11:51:53;7.00;;;1.48;;
9140;SDS011;46330;50.822;7.126;2023-10-19T11:54:22;6.78;;;1.63;;
9140;SDS011;46330;50.822;7.126;2023-10-19T11:56:52;6.43;;;1.58;;
9140;SDS011;46330;50.822;7.126;2023-10-19T11:59:20;6.80;;;1.83;;
9140;SDS011;46330;50.822;7.126;2023-10-19T12:01:50;7.78;;;1.45;;
9140;SDS011;46330;50.822;7.126;2023-10-19T12:04:18;7.00;;;1.60;;
9140;SDS011;46330;50.822;7.126;2023-10-19T12:06:48;5.68;;;1.80;;
9140;SDS011;46330;50.822;7.126;2023-10-19T12:09:16;5.97;;;1.67;;
9140;SDS011;46330;50.822;7.126;2023-10-19T12:11:44;7.53;;;1.48;;
9140;SDS011;46330;50.822;7.126;2023-10-19T12:14:14;6.72;;;1.52;;
9140;SDS011;46330;50.822;7.126;2023-10-19T12:16:42;5.53;;;1.80;;
9140;SDS011;46330;50.822;7.126;2023-10-19T12:19:12;6.75;;;1.98;;
9140;SDS011;46330;50.822;7.126;2023-10-19T12:21:40;7.03;;;1.92;;
9140;SDS011;46330;50.822;7.126;2023-10-19T12:24:10;9.35;;;1.80;;
9140;SDS011;46330;50.822;7.126;2023-10-19T12:26:38;10.23;;;1.73;;
9140;SDS011;46330;50.822;7.126;2023-10-19T12:29:06;6.82;;;1.90;;
9140;SDS011;46330;50.822;7.126;2023-10-19T12:31:37;4.57;;;1.60;;
9140;SDS011;46330;50.822;7.126;2023-10-19T12:34:07;5.88;;;2.00;;
9140;SDS011;46330;50.822;7.126;2023-10-19T12:36:38;5.13;;;1.77;;
9140;SDS011;46330;50.822;7.126;2023-10-19T12:39:07;7.82;;;2.08;;
9140;SDS011;46330;50.822;7.126;2023-10-19T12:41:45;8.85;;;2.30;;
9140;SDS011;46330;50.822;7.126;2023-10-19T12:44:13;6.90;;;2.00;;
9140;SDS011;46330;50.822;7.126;2023-10-19T12:46:42;7.43;;;2.13;;
9140;SDS011;46330;50.822;7.126;2023-10-19T12:49:10;8.50;;;2.22;;
9140;SDS011;46330;50.822;7.126;2023-10-19T12:51:41;8.88;;;2.20;;
9140;SDS011;46330;50.822;7.126;2023-10-19T12:54:12;6.43;;;2.10;;
9140;SDS011;46330;50.822;7.126;2023-10-19T12:56:40;8.32;;;2.70;;
9140;SDS011;46330;50.822;7.126;2023-10-19T12:59:08;8.23;;;2.35;;
9140;SDS011;46330;50.822;7.126;2023-10-19T13:01:36;8.55;;;2.25;;
9140;SDS011;46330;50.822;7.126;2023-10-19T13:04:05;6.68;;;2.83;;
9140;SDS011;46330;50.822;7.126;2023-10-19T13:06:40;5.32;;;2.20;;
9140;SDS011;46330;50.822;7.126;2023-10-19T13:09:09;7.32;;;2.50;;
9140;SDS011;46330;50.822;7.126;2023-10-19T13:11:38;5.00;;;1.90;;
9140;SDS011;46330;50.822;7.126;2023-10-19T13:14:10;6.72;;;2.10;;
9140;SDS011;46330;50.822;7.126;2023-10-19T13:16:38;5.18;;;1.73;;
9140;SDS011;46330;50.822;7.126;2023-10-19T13:19:07;6.72;;;2.10;;
9140;SDS011;46330;50.822;7.126;2023-10-19T13:21:39;5.18;;;1.80;;
9140;SDS011;46330;50.822;7.126;2023-10-19T13:24:08;10.57;;;1.83;;
9140;SDS011;46330;50.822;7.126;2023-10-19T13:26:36;9.98;;;2.08;;
9140;SDS011;46330;50.822;7.126;2023-10-19T13:29:08;6.05;;;2.20;;
9140;SDS011;46330;50.822;7.126;2023-10-19T13:31:37;7.85;;;1.90;;
9140;SDS011;46330;50.822;7.126;2023-10-19T13:34:06;6.40;;;1.90;;
9140;SDS011;46330;50.822;7.126;2023-10-19T13:36:36;8.75;;;2.35;;
9140;SDS011;46330;50.822;7.126;2023-10-19T13:39:05;8.02;;;2.03;;
9140;SDS011;46330;50.822;7.126;2023-10-19T13:41:40;6.07;;;2.13;;
9140;SDS011;46330;50.822;7.126;2023-10-19T13:44:08;10.23;;;2.65;;
9140;SDS011;46330;50.822;7.126;2023-10-19T13:46:38;8.60;;;2.80;;
9140;SDS011;46330;50.822;7.126;2023-10-19T13:49:06;8.32;;;2.72;;
9140;SDS011;46330;50.822;7.126;2023-10-19T13:51:36;8.07;;;2.50;;
9140;SDS011;46330;50.822;7.126;2023-10-19T13:54:05;7.00;;;2.22;;
9140;SDS011;46330;50.822;7.126;2023-10-19T13:56:33;11.40;;;2.40;;
9140;SDS011;46330;50.822;7.126;2023-10-19T13:59:03;10.73;;;2.97;;
9140;SDS011;46330;50.822;7.126;2023-10-19T14:01:32;8.90;;;2.60;;
9140;SDS011;46330;50.822;7.126;2023-10-19T14:04:00;7.30;;;2.13;;
9140;SDS011;46330;50.822;7.126;2023-10-19T14:06:28;7.63;;;2.28;;
9140;SDS011;46330;50.822;7.126;2023-10-19T14:08:56;7.05;;;2.50;;
9140;SDS011;46330;50.822;7.126;2023-10-19T14:11:25;8.43;;;2.78;;
9140;SDS011;46330;50.822;7.126;2023-10-19T14:13:53;11.52;;;2.92;;
9140;SDS011;46330;50.822;7.126;2023-10-19T14:16:23;10.45;;;2.92;;
9140;SDS011;46330;50.822;7.126;2023-10-19T14:18:52;8.43;;;3.03;;
9140;SDS011;46330;50.822;7.126;2023-10-19T14:21:20;6.00;;;2.42;;
9140;SDS011;46330;50.822;7.126;2023-10-19T14:23:49;8.05;;;2.67;;
9140;SDS011;46330;50.822;7.126;2023-10-19T14:26:17;5.95;;;2.70;;
9140;SDS011;46330;50.822;7.126;2023-10-19T14:28:45;4.43;;;2.53;;
9140;SDS011;46330;50.822;7.126;2023-10-19T14:31:15;7.53;;;3.03;;
9140;SDS011;46330;50.822;7.126;2023-10-19T14:33:48;7.80;;;3.00;;
9140;SDS011;46330;50.822;7.126;2023-10-19T14:36:16;11.82;;;3.47;;
9140;SDS011;46330;50.822;7.126;2023-10-19T14:38:44;8.35;;;3.22;;
9140;SDS011;46330;50.822;7.126;2023-10-19T14:41:12;7.18;;;3.13;;
9140;SDS011;46330;50.822;7.126;2023-10-19T14:43:41;7.07;;;2.92;;
9140;SDS011;46330;50.822;7.126;2023-10-19T14:46:09;11.40;;;3.90;;
9140;SDS011;46330;50.822;7.126;2023-10-19T14:48:38;6.15;;;3.30;;
9140;SDS011;46330;50.822;7.126;2023-10-19T14:51:07;8.43;;;3.30;;
9140;SDS011;46330;50.822;7.126;2023-10-19T14:53:35;11.55;;;4.07;;
9140;SDS011;46330;50.822;7.126;2023-10-19T14:56:04;12.00;;;4.07;;
9140;SDS011;46330;50.822;7.126;2023-10-19T14:58:34;9.20;;;3.95;;
9140;SDS011;46330;50.822;7.126;2023-10-19T15:01:03;10.52;;;3.78;;
9140;SDS011;46330;50.822;7.126;2023-10-19T15:03:33;8.40;;;4.40;;
9140;SDS011;46330;50.822;7.126;2023-10-19T15:06:02;10.95;;;4.30;;
9140;SDS011;46330;50.822;7.126;2023-10-19T15:08:34;8.27;;;4.00;;
9140;SDS011;46330;50.822;7.126;2023-10-19T15:11:02;8.63;;;4.43;;
9140;SDS011;46330;50.822;7.126;2023-10-19T15:13:30;9.68;;;3.88;;
9140;SDS011;46330;50.822;7.126;2023-10-19T15:16:06;9.95;;;4.32;;
9140;SDS011;46330;50.822;7.126;2023-10-19T15:18:34;7.00;;;3.75;;
9140;SDS011;46330;50.822;7.126;2023-10-19T15:21:06;12.05;;;4.63;;
9140;SDS011;46330;50.822;7.126;2023-10-19T15:23:36;10.20;;;4.20;;